createdAt,value
2019-01-02T00:00:04.570Z,7.83
2019-01-02T00:02:35.440Z,5.23
2019-01-02T00:05:06.154Z,4.47
2019-01-02T00:07:36.876Z,5.43
2019-01-02T00:10:07.402Z,6.67
2019-01-02T00:12:37.678Z,6.40
2019-01-02T00:15:08.441Z,7.90
2019-01-02T00:17:39.160Z,4.97
2019-01-02T00:20:11.376Z,6.03
2019-01-02T00:22:42.008Z,5.07
2019-01-02T00:25:11.900Z,7.43
2019-01-02T00:27:42.404Z,5.60
2019-01-02T00:30:12.564Z,6.20
2019-01-02T00:32:43.453Z,5.47
2019-01-02T00:35:13.278Z,8.33
2019-01-02T00:37:44.082Z,8.13
2019-01-02T00:40:14.666Z,4.93
2019-01-02T00:42:45.392Z,7.07
2019-01-02T00:45:22.200Z,4.00
2019-01-02T00:47:48.478Z,6.13
2019-01-02T00:50:19.154Z,4.83
2019-01-02T00:52:49.527Z,6.77
2019-01-02T00:55:20.046Z,6.97
2019-01-02T00:57:50.196Z,12.07
2019-01-02T01:00:25.958Z,10.70
2019-01-02T01:02:56.493Z,12.20
2019-01-02T01:05:45.096Z,11.00
2019-01-02T01:08:34.116Z,6.63
2019-01-02T01:11:04.501Z,9.27
2019-01-02T01:13:34.706Z,8.23
2019-01-02T01:16:05.760Z,9.83
2019-01-02T01:18:35.610Z,6.20
2019-01-02T01:21:06.124Z,8.03
2019-01-02T01:23:36.679Z,7.47
2019-01-02T01:26:07.307Z,3.27
2019-01-02T01:28:37.897Z,4.33
2019-01-02T01:31:08.561Z,4.20
2019-01-02T01:33:38.884Z,3.73
2019-01-02T01:36:09.855Z,8.77
2019-01-02T01:38:40.533Z,6.67
2019-01-02T01:41:10.516Z,10.57
2019-01-02T01:43:41.390Z,12.70
2019-01-02T01:46:11.660Z,6.53
2019-01-02T01:48:42.586Z,5.80
2019-01-02T01:51:13.096Z,8.83
2019-01-02T01:54:02.396Z,6.37
2019-01-02T01:56:32.590Z,6.03
2019-01-02T01:59:02.841Z,3.60
2019-01-02T02:01:33.106Z,7.03
2019-01-02T02:04:03.987Z,7.23
2019-01-02T02:06:34.550Z,9.13
2019-01-02T02:09:06.510Z,8.07
2019-01-02T02:11:37.510Z,8.90
2019-01-02T02:14:08.032Z,10.83
2019-01-02T02:16:38.597Z,14.60
2019-01-02T02:19:09.010Z,7.87
2019-01-02T02:21:39.631Z,9.30
2019-01-02T02:24:10.621Z,8.87
2019-01-02T02:26:40.434Z,9.00
2019-01-02T02:29:10.922Z,9.63
2019-01-02T02:31:41.901Z,13.90
2019-01-02T02:34:12.198Z,12.20
2019-01-02T02:37:01.510Z,11.23
2019-01-02T02:39:32.038Z,12.50
2019-01-02T02:42:02.716Z,10.90
2019-01-02T02:44:33.498Z,6.37
2019-01-02T02:47:04.579Z,4.27
2019-01-02T02:49:34.889Z,4.17
2019-01-02T02:52:05.568Z,3.67
2019-01-02T02:54:35.800Z,5.60
2019-01-02T02:57:06.360Z,8.03
2019-01-02T02:59:36.984Z,5.60
2019-01-02T03:02:07.821Z,7.70
2019-01-02T03:04:38.798Z,8.80
2019-01-02T03:07:09.911Z,1.53
2019-01-02T03:09:40.465Z,3.30
2019-01-02T03:12:11.404Z,5.07
2019-01-02T03:14:41.886Z,6.10
2019-01-02T03:17:12.311Z,4.13
2019-01-02T03:19:43.276Z,5.30
2019-01-02T03:22:13.736Z,8.10
2019-01-02T03:24:44.364Z,5.37
2019-01-02T03:27:14.962Z,6.90
2019-01-02T03:29:45.612Z,4.90
2019-01-02T03:32:16.226Z,4.47
2019-01-02T03:34:47.188Z,4.97
2019-01-02T03:37:17.442Z,7.67
2019-01-02T03:39:47.772Z,4.67
2019-01-02T03:42:18.438Z,5.57
2019-01-02T03:44:49.008Z,6.40
2019-01-02T03:47:19.199Z,3.80
2019-01-02T03:49:49.776Z,10.73
2019-01-02T03:52:20.369Z,4.60
2019-01-02T03:54:50.941Z,5.87
2019-01-02T03:57:21.426Z,5.07
2019-01-02T03:59:52.010Z,6.70
2019-01-02T04:02:22.608Z,7.63
2019-01-02T04:04:53.174Z,8.10
2019-01-02T04:07:23.702Z,6.03
2019-01-02T04:09:54.214Z,7.30
2019-01-02T04:12:24.769Z,8.60
2019-01-02T04:14:55.258Z,9.33
2019-01-02T04:17:25.558Z,12.87
2019-01-02T04:19:55.822Z,9.57
2019-01-02T04:22:45.017Z,12.73
2019-01-02T04:25:15.542Z,10.27
2019-01-02T04:27:46.058Z,10.70
2019-01-02T04:30:16.219Z,12.40
2019-01-02T04:32:46.782Z,19.40
2019-01-02T04:35:17.351Z,13.63
2019-01-02T04:37:47.932Z,14.80
2019-01-02T04:40:18.227Z,15.53
2019-01-02T04:42:48.836Z,15.37
2019-01-02T04:45:19.379Z,16.73
2019-01-02T04:47:49.911Z,16.03
2019-01-02T04:50:20.406Z,21.80
2019-01-02T04:52:50.923Z,17.77
2019-01-02T04:55:21.412Z,12.90
2019-01-02T04:57:51.937Z,20.13
2019-01-02T05:00:22.173Z,13.70
2019-01-02T05:02:52.655Z,18.70
2019-01-02T05:05:23.033Z,11.70
2019-01-02T05:07:53.633Z,17.50
2019-01-02T05:10:24.019Z,20.73
2019-01-02T05:12:53.925Z,16.60
2019-01-02T05:15:24.447Z,14.00
2019-01-02T05:17:55.005Z,11.73
2019-01-02T05:20:25.444Z,13.03
2019-01-02T05:22:55.920Z,15.67
2019-01-02T05:25:26.184Z,17.13
2019-01-02T05:27:56.641Z,18.27
2019-01-02T05:30:27.077Z,15.73
2019-01-02T05:32:57.644Z,16.20
2019-01-02T05:35:28.145Z,14.90
2019-01-02T05:37:58.581Z,17.37
2019-01-02T05:40:29.111Z,16.20
2019-01-02T05:42:59.384Z,18.47
2019-01-02T05:45:29.884Z,12.93
2019-01-02T05:48:00.112Z,18.07
2019-01-02T05:50:30.626Z,23.30
2019-01-02T05:53:01.190Z,10.63
2019-01-02T05:55:31.675Z,15.20
2019-01-02T05:58:02.060Z,17.30
2019-01-02T06:00:32.626Z,19.97
2019-01-02T06:03:03.214Z,19.97
2019-01-02T06:05:33.722Z,19.87
2019-01-02T06:08:04.215Z,18.87
2019-01-02T06:10:34.371Z,20.10
2019-01-02T06:13:05.022Z,19.43
2019-01-02T06:15:35.275Z,20.97
2019-01-02T06:18:05.883Z,19.60
2019-01-02T06:20:36.709Z,20.47
2019-01-02T06:23:06.949Z,17.37
2019-01-02T06:25:37.494Z,18.03
2019-01-02T06:28:07.741Z,17.97
2019-01-02T06:30:38.017Z,16.53
2019-01-02T06:33:08.352Z,19.80
2019-01-02T06:35:38.561Z,18.00
2019-01-02T06:38:09.197Z,19.27
2019-01-02T06:40:39.758Z,17.23
2019-01-02T06:43:10.415Z,19.57
2019-01-02T06:45:40.618Z,27.07
2019-01-02T06:48:10.548Z,20.73
2019-01-02T06:50:40.376Z,30.77
2019-01-02T06:53:10.968Z,10.67
2019-01-02T06:55:41.224Z,22.47
2019-01-02T06:58:11.416Z,21.23
2019-01-02T07:00:43.566Z,20.60
2019-01-02T07:03:14.141Z,19.63
2019-01-02T07:05:44.725Z,18.10
2019-01-02T07:08:15.009Z,20.87
2019-01-02T07:10:45.619Z,14.93
2019-01-02T07:13:16.228Z,26.47
2019-01-02T07:15:46.394Z,17.97
2019-01-02T07:18:16.916Z,23.47
2019-01-02T07:20:47.539Z,25.03
2019-01-02T07:23:18.210Z,18.97
2019-01-02T07:25:48.425Z,23.93
2019-01-02T07:28:18.890Z,20.57
2019-01-02T07:30:49.481Z,26.93
2019-01-02T07:33:20.745Z,26.60
2019-01-02T07:36:11.704Z,17.80
2019-01-02T07:39:21.150Z,17.00
2019-01-02T07:42:26.900Z,21.23
2019-01-02T07:45:42.654Z,17.20
2019-01-02T07:49:01.705Z,23.40
2019-01-02T07:52:10.288Z,16.97
2019-01-02T07:55:20.318Z,25.07
2019-01-02T07:58:07.000Z,24.07
2019-01-02T08:01:14.290Z,23.93
2019-01-02T08:04:37.633Z,22.80
2019-01-02T08:07:52.692Z,22.33
2019-01-02T08:10:57.279Z,19.03
2019-01-02T08:13:58.415Z,19.07
2019-01-02T08:16:56.676Z,19.17
2019-01-02T08:19:56.441Z,27.50
2019-01-02T08:23:20.531Z,22.37
2019-01-02T08:26:32.914Z,19.43
2019-01-02T08:29:40.900Z,23.80
2019-01-02T08:32:50.624Z,19.07
2019-01-02T08:36:07.413Z,27.83
2019-01-02T08:39:28.186Z,19.57
2019-01-02T08:42:34.128Z,24.50
2019-01-02T08:45:49.701Z,23.67
2019-01-02T08:48:48.366Z,17.57
2019-01-02T08:52:14.578Z,21.73
2019-01-02T08:55:05.568Z,19.20
2019-01-02T08:58:11.706Z,20.40
2019-01-02T09:01:16.518Z,26.40
2019-01-02T09:04:45.808Z,19.60
2019-01-02T09:07:53.873Z,15.97
2019-01-02T09:10:48.764Z,19.27
2019-01-02T09:13:52.764Z,28.13
2019-01-02T09:16:51.038Z,30.03
2019-01-02T09:19:50.309Z,19.67
2019-01-02T09:23:01.478Z,20.83
2019-01-02T09:26:22.245Z,26.33
2019-01-02T09:29:33.199Z,26.77
2019-01-02T09:32:27.859Z,26.60
2019-01-02T09:36:00.329Z,19.90
2019-01-02T09:39:15.270Z,24.07
2019-01-02T09:42:28.267Z,17.67
2019-01-02T09:45:45.366Z,15.97
2019-01-02T09:48:58.670Z,28.57
2019-01-02T09:52:18.420Z,14.77
2019-01-02T09:55:14.358Z,22.33
2019-01-02T09:58:13.319Z,19.67
2019-01-02T10:01:14.750Z,28.10
2019-01-02T10:04:13.214Z,21.40
2019-01-02T10:07:18.247Z,22.70
2019-01-02T10:10:34.317Z,23.93
2019-01-02T10:13:40.052Z,19.83
2019-01-02T10:16:41.392Z,16.20
2019-01-02T10:19:51.695Z,24.67
2019-01-02T10:23:14.436Z,26.17
2019-01-02T10:26:24.988Z,17.00
2019-01-02T10:29:19.513Z,21.13
2019-01-02T10:32:25.909Z,24.93
2019-01-02T10:35:32.872Z,19.90
2019-01-02T10:38:34.167Z,18.77
2019-01-02T10:41:43.830Z,16.63
2019-01-02T10:44:54.989Z,15.93
2019-01-02T10:47:49.519Z,24.87
2019-01-02T10:51:27.844Z,19.27
2019-01-02T10:54:36.034Z,17.97
2019-01-02T10:58:04.982Z,16.67
2019-01-02T11:01:16.062Z,25.17
2019-01-02T11:04:29.778Z,21.70
2019-01-02T11:07:44.096Z,15.80
2019-01-02T11:10:50.048Z,17.43
2019-01-02T11:14:07.243Z,31.70
2019-01-02T11:17:12.864Z,20.67
2019-01-02T11:20:18.704Z,21.47
2019-01-02T11:23:22.468Z,20.53
2019-01-02T11:26:37.240Z,15.60
2019-01-02T11:29:31.080Z,20.47
2019-01-02T11:32:54.236Z,21.33
2019-01-02T11:35:41.446Z,12.57
2019-01-02T11:38:50.458Z,17.33
2019-01-02T11:41:43.477Z,17.90
2019-01-02T11:44:49.550Z,18.60
2019-01-02T11:47:20.144Z,22.60
2019-01-02T11:49:50.078Z,25.30
2019-01-02T11:52:20.346Z,19.03
2019-01-02T11:54:50.794Z,18.83
2019-01-02T11:57:21.128Z,26.60
2019-01-02T11:59:51.692Z,24.67
2019-01-02T12:02:24.954Z,17.87
2019-01-02T12:04:55.327Z,21.03
2019-01-02T12:07:25.805Z,10.40
2019-01-02T12:09:56.346Z,15.77
2019-01-02T12:12:26.753Z,13.33
2019-01-02T12:14:56.947Z,13.40
2019-01-02T12:17:27.530Z,15.63
2019-01-02T12:19:58.274Z,9.13
2019-01-02T12:22:28.782Z,13.97
2019-01-02T12:24:59.452Z,11.17
2019-01-02T12:27:36.318Z,9.13
2019-01-02T12:30:09.343Z,11.10
2019-01-02T12:32:39.918Z,16.00
2019-01-02T12:35:10.519Z,11.90
2019-01-02T12:37:41.048Z,15.97
2019-01-02T12:40:11.660Z,15.97
2019-01-02T12:42:41.866Z,20.00
2019-01-02T12:45:12.261Z,20.83
2019-01-02T12:47:42.847Z,22.20
2019-01-02T12:50:32.018Z,20.30
2019-01-02T12:53:03.990Z,20.30
2019-01-02T12:55:34.303Z,13.07
2019-01-02T12:58:05.298Z,17.33
2019-01-02T13:00:58.897Z,23.53
2019-01-02T13:04:02.500Z,16.27
2019-01-02T13:07:29.408Z,12.70
2019-01-02T13:10:20.878Z,13.83
2019-01-02T13:13:40.185Z,19.03
2019-01-02T13:16:35.452Z,20.00
2019-01-02T13:19:34.910Z,19.10
2019-01-02T13:22:48.766Z,14.43
2019-01-02T13:25:26.346Z,18.03
2019-01-02T13:28:33.113Z,21.37
2019-01-02T13:31:29.656Z,15.60
2019-01-02T13:34:30.066Z,11.40
2019-01-02T13:37:34.668Z,15.73
2019-01-02T13:40:48.606Z,11.53
2019-01-02T13:43:53.712Z,15.47
2019-01-02T13:46:45.160Z,17.70
2019-01-02T13:49:45.840Z,13.70
2019-01-02T13:52:16.066Z,13.87
2019-01-02T13:54:46.280Z,17.60
2019-01-02T13:57:16.116Z,13.70
2019-01-02T13:59:46.012Z,12.27
2019-01-02T14:02:16.638Z,13.80
2019-01-02T14:04:48.193Z,20.17
2019-01-02T14:07:18.778Z,17.67
2019-01-02T14:09:49.278Z,16.43
2019-01-02T14:12:19.822Z,14.93
2019-01-02T14:14:50.142Z,20.33
2019-01-02T14:17:20.869Z,19.10
2019-01-02T14:19:51.398Z,14.93
2019-01-02T14:22:21.934Z,13.70
2019-01-02T14:24:52.559Z,16.47
2019-01-02T14:27:22.757Z,17.97
2019-01-02T14:29:53.275Z,14.80
2019-01-02T14:32:23.294Z,14.60
2019-01-02T14:34:53.536Z,10.37
2019-01-02T14:37:23.732Z,13.57
2019-01-02T14:39:54.236Z,7.57
2019-01-02T14:42:24.751Z,10.37
2019-01-02T14:44:54.978Z,7.63
2019-01-02T14:47:25.528Z,10.27
2019-01-02T14:49:55.781Z,19.03
2019-01-02T14:52:26.134Z,10.80
2019-01-02T14:54:56.800Z,10.33
2019-01-02T14:57:27.442Z,12.60
2019-01-02T14:59:57.909Z,14.40
2019-01-02T15:02:28.444Z,9.37
2019-01-02T15:04:58.709Z,12.20
2019-01-02T15:07:29.315Z,7.07
2019-01-02T15:09:59.884Z,6.63
2019-01-02T15:12:30.388Z,13.77
2019-01-02T15:15:01.869Z,10.93
2019-01-02T15:17:32.953Z,10.37
2019-01-02T15:20:03.255Z,13.17
2019-01-02T15:22:33.646Z,15.40
2019-01-02T15:25:04.493Z,11.00
2019-01-02T15:27:35.105Z,12.03
2019-01-02T15:30:06.666Z,13.50
2019-01-02T15:32:37.319Z,10.90
2019-01-02T15:35:26.603Z,13.63
2019-01-02T15:37:57.232Z,7.90
2019-01-02T15:40:27.530Z,10.33
2019-01-02T15:42:58.155Z,10.73
2019-01-02T15:45:28.728Z,10.23
2019-01-02T15:47:58.819Z,8.07
2019-01-02T15:50:30.114Z,15.50
2019-01-02T15:53:00.832Z,7.97
2019-01-02T15:55:31.005Z,12.93
2019-01-02T15:58:01.550Z,9.10
2019-01-02T16:00:31.608Z,20.50
2019-01-02T16:03:01.831Z,14.67
2019-01-02T16:05:32.068Z,11.97
2019-01-02T16:08:02.308Z,9.27
2019-01-02T16:10:32.522Z,12.10
2019-01-02T16:13:03.007Z,6.70
2019-01-02T16:15:33.476Z,8.70
2019-01-02T16:18:04.075Z,8.33
2019-01-02T16:20:34.597Z,23.37
2019-01-02T16:23:05.259Z,9.07
2019-01-02T16:25:35.508Z,9.27
2019-01-02T16:28:05.584Z,13.53
2019-01-02T16:30:36.091Z,12.93
2019-01-02T16:33:06.278Z,10.97
2019-01-02T16:35:36.936Z,11.23
2019-01-02T16:38:07.064Z,9.93
2019-01-02T16:40:37.831Z,8.33
2019-01-02T16:43:27.027Z,12.17
2019-01-02T16:45:57.559Z,9.60
2019-01-02T16:48:28.026Z,9.47
2019-01-02T16:50:58.254Z,9.90
2019-01-02T16:53:28.832Z,10.97
2019-01-02T16:55:59.414Z,16.27
2019-01-02T16:58:29.606Z,14.80
2019-01-02T17:01:00.222Z,16.73
2019-01-02T17:03:30.411Z,15.93
2019-01-02T17:06:00.754Z,18.37
2019-01-02T17:08:30.806Z,9.37
2019-01-02T17:11:01.031Z,14.63
2019-01-02T17:13:31.366Z,14.13
2019-01-02T17:16:01.604Z,10.87
2019-01-02T17:18:31.638Z,13.30
2019-01-02T17:21:01.871Z,9.47
2019-01-02T17:23:32.015Z,11.23
2019-01-02T17:26:02.691Z,8.07
2019-01-02T17:28:33.264Z,9.23
2019-01-02T17:31:03.470Z,10.47
2019-01-02T17:33:33.605Z,7.20
2019-01-02T17:36:22.950Z,9.00
2019-01-02T17:38:53.689Z,9.00
2019-01-02T17:41:24.239Z,12.57
2019-01-02T17:43:54.934Z,10.30
2019-01-02T17:46:25.398Z,11.93
2019-01-02T17:48:55.923Z,12.80
2019-01-02T17:51:26.540Z,7.40
2019-01-02T17:53:57.014Z,10.07
2019-01-02T17:56:27.444Z,10.27
2019-01-02T17:58:58.106Z,16.30
2019-01-02T18:01:28.659Z,10.57
2019-01-02T18:03:59.209Z,12.77
2019-01-02T18:06:29.742Z,9.30
2019-01-02T18:09:00.095Z,7.00
2019-01-02T18:11:30.232Z,9.30
2019-01-02T18:14:00.832Z,6.93
2019-01-02T18:16:31.100Z,9.17
2019-01-02T18:19:01.331Z,10.10
2019-01-02T18:21:31.523Z,10.37
2019-01-02T18:24:02.113Z,8.53
2019-01-02T18:26:32.659Z,10.50
2019-01-02T18:29:03.115Z,8.13
2019-01-02T18:31:33.079Z,10.00
2019-01-02T18:34:03.737Z,9.27
2019-01-02T18:36:34.318Z,13.03
2019-01-02T18:39:06.430Z,8.47
2019-01-02T18:41:36.927Z,8.93
2019-01-02T18:44:07.452Z,7.40
2019-01-02T18:46:38.039Z,11.20
2019-01-02T18:49:08.512Z,9.03
2019-01-02T18:51:38.787Z,5.90
2019-01-02T18:54:09.407Z,14.97
2019-01-02T18:56:39.688Z,12.83
2019-01-02T18:59:10.319Z,9.57
2019-01-02T19:01:40.471Z,12.50
2019-01-02T19:04:10.847Z,13.03
2019-01-02T19:06:41.485Z,14.50
2019-01-02T19:09:11.720Z,12.90
2019-01-02T19:11:42.291Z,9.83
2019-01-02T19:14:12.987Z,6.00
2019-01-02T19:16:43.545Z,7.63
2019-01-02T19:19:13.930Z,8.50
2019-01-02T19:21:44.232Z,10.17
2019-01-02T19:24:14.826Z,10.20
2019-01-02T19:26:45.525Z,10.50
2019-01-02T19:29:15.693Z,10.53
2019-01-02T19:31:46.322Z,7.60
2019-01-02T19:34:16.927Z,12.37
2019-01-02T19:36:47.429Z,6.27
2019-01-02T19:39:17.366Z,11.40
2019-01-02T19:41:48.005Z,7.73
2019-01-02T19:44:17.895Z,12.30
2019-01-02T19:46:48.119Z,12.20
2019-01-02T19:49:18.395Z,14.30
2019-01-02T19:51:48.087Z,8.20
2019-01-02T19:54:18.201Z,14.97
2019-01-02T19:56:48.141Z,11.47
2019-01-02T19:59:18.481Z,8.63
2019-01-02T20:01:48.670Z,8.47
2019-01-02T20:04:19.404Z,8.17
2019-01-02T20:06:49.712Z,23.50
2019-01-02T20:09:20.452Z,18.00
2019-01-02T20:11:50.717Z,5.83
2019-01-02T20:14:20.603Z,6.97
2019-01-02T20:16:51.213Z,6.97
2019-01-02T20:19:21.819Z,7.70
2019-01-02T20:21:52.433Z,7.97
2019-01-02T20:24:22.921Z,6.90
2019-01-02T20:26:55.524Z,6.03
2019-01-02T20:29:25.387Z,7.13
2019-01-02T20:31:55.873Z,5.03
2019-01-02T20:34:26.339Z,9.07
2019-01-02T20:36:56.871Z,5.00
2019-01-02T20:39:27.254Z,8.17
2019-01-02T20:41:57.946Z,7.30
2019-01-02T20:44:27.893Z,9.03
2019-01-02T20:46:58.560Z,6.80
2019-01-02T20:49:28.810Z,20.33
2019-01-02T20:51:58.936Z,6.97
2019-01-02T20:54:29.329Z,9.33
2019-01-02T20:56:59.801Z,8.23
2019-01-02T20:59:29.841Z,5.13
2019-01-02T21:01:59.421Z,8.67
2019-01-02T21:04:29.304Z,3.90
2019-01-02T21:07:19.953Z,6.43
2019-01-02T21:09:50.490Z,5.33
2019-01-02T21:12:20.479Z,6.03
2019-01-02T21:14:50.840Z,4.20
2019-01-02T21:17:20.929Z,5.67
2019-01-02T21:19:50.907Z,3.40
2019-01-02T21:22:21.398Z,6.63
2019-01-02T21:24:51.939Z,6.30
2019-01-02T21:27:22.921Z,3.47
2019-01-02T21:29:53.723Z,4.93
2019-01-02T21:32:24.257Z,4.17
2019-01-02T21:34:55.464Z,7.47
2019-01-02T21:37:26.253Z,15.63
2019-01-02T21:39:57.209Z,9.83
2019-01-02T21:42:28.121Z,6.60
2019-01-02T21:44:58.383Z,6.43
2019-01-02T21:47:29.785Z,5.73
2019-01-02T21:49:59.932Z,5.00
2019-01-02T21:52:30.551Z,6.10
2019-01-02T21:55:00.305Z,3.20
2019-01-02T21:57:31.006Z,6.40
2019-01-02T22:00:20.294Z,10.17
2019-01-02T22:02:50.123Z,6.23
2019-01-02T22:05:20.741Z,4.97
2019-01-02T22:07:51.184Z,3.03
2019-01-02T22:10:21.865Z,2.60
2019-01-02T22:12:52.246Z,5.33
2019-01-02T22:15:22.267Z,4.33
2019-01-02T22:17:52.805Z,2.70
2019-01-02T22:20:23.243Z,5.80
2019-01-02T22:22:53.565Z,3.90
2019-01-02T22:25:24.154Z,6.77
2019-01-02T22:27:54.914Z,5.40
2019-01-02T22:30:25.479Z,5.97
2019-01-02T22:32:55.350Z,6.67
2019-01-02T22:35:26.023Z,4.13
2019-01-02T22:37:55.815Z,6.57
2019-01-02T22:40:26.313Z,6.87
2019-01-02T22:42:56.609Z,6.80
2019-01-02T22:45:27.041Z,5.40
2019-01-02T22:47:57.655Z,7.13
2019-01-02T22:50:27.849Z,6.13
2019-01-02T22:52:58.032Z,13.37
2019-01-02T22:55:28.856Z,7.03
2019-01-02T22:57:59.411Z,8.43
2019-01-02T23:00:48.407Z,4.83
2019-01-02T23:03:39.714Z,7.73
2019-01-02T23:06:27.751Z,5.97
2019-01-02T23:09:28.785Z,5.70
2019-01-02T23:12:16.695Z,4.63
2019-01-02T23:15:05.955Z,7.90
2019-01-02T23:18:07.393Z,3.97
2019-01-02T23:21:05.205Z,3.80
2019-01-02T23:23:57.271Z,3.97
2019-01-02T23:26:48.996Z,6.87
2019-01-02T23:29:51.151Z,6.07
2019-01-02T23:32:49.423Z,9.60
2019-01-02T23:35:37.347Z,6.80
2019-01-02T23:38:26.698Z,4.83
2019-01-02T23:41:14.819Z,4.03
2019-01-02T23:44:03.163Z,3.73
2019-01-02T23:47:10.739Z,4.87
2019-01-02T23:50:00.815Z,6.97
2019-01-02T23:53:01.744Z,2.63
2019-01-02T23:56:02.967Z,3.40
2019-01-02T23:59:00.931Z,4.10
